sensor_id;sensor_type;location;lat;lon;timestamp;pressure;altitude;pressure_sealevel;temperature;humidity
64835;BME280;51293;59.296;18.006;2022-08-01T00:01:37;100888.22;;;15.56;77.32
64835;BME280;51293;59.296;18.006;2022-08-01T00:04:03;100892.03;;;15.55;77.51
64835;BME280;51293;59.296;18.006;2022-08-01T00:06:28;100888.22;;;15.56;77.36
64835;BME280;51293;59.296;18.006;2022-08-01T00:08:54;100883.00;;;15.55;77.71
64835;BME280;51293;59.296;18.006;2022-08-01T00:11:20;100885.44;;;15.51;77.83
64835;BME280;51293;59.296;18.006;2022-08-01T00:13:45;100882.44;;;15.48;78.58
64835;BME280;51293;59.296;18.006;2022-08-01T00:16:10;100878.56;;;15.43;78.65
64835;BME280;51293;59.296;18.006;2022-08-01T00:18:36;100878.81;;;15.42;78.90
64835;BME280;51293;59.296;18.006;2022-08-01T00:21:03;100881.56;;;15.47;78.61
64835;BME280;51293;59.296;18.006;2022-08-01T00:23:28;100873.09;;;15.43;79.10
64835;BME280;51293;59.296;18.006;2022-08-01T00:25:54;100876.59;;;15.39;79.21
64835;BME280;51293;59.296;18.006;2022-08-01T00:28:19;100875.75;;;15.38;79.06
64835;BME280;51293;59.296;18.006;2022-08-01T00:30:45;100870.03;;;15.35;79.14
64835;BME280;51293;59.296;18.006;2022-08-01T00:33:10;100871.09;;;15.34;79.54
64835;BME280;51293;59.296;18.006;2022-08-01T00:35:35;100867.81;;;15.32;80.09
64835;BME280;51293;59.296;18.006;2022-08-01T00:38:01;100869.72;;;15.31;80.20
64835;BME280;51293;59.296;18.006;2022-08-01T00:40:26;100867.75;;;15.27;80.19
64835;BME280;51293;59.296;18.006;2022-08-01T00:42:51;100872.38;;;15.26;80.22
64835;BME280;51293;59.296;18.006;2022-08-01T00:45:17;100876.69;;;15.22;80.43
64835;BME280;51293;59.296;18.006;2022-08-01T00:47:42;100880.28;;;15.23;80.61
64835;BME280;51293;59.296;18.006;2022-08-01T00:50:09;100867.66;;;15.16;81.04
64835;BME280;51293;59.296;18.006;2022-08-01T00:52:35;100863.53;;;15.14;80.98
64835;BME280;51293;59.296;18.006;2022-08-01T00:55:00;100859.41;;;15.11;81.26
64835;BME280;51293;59.296;18.006;2022-08-01T00:57:26;100856.94;;;15.10;81.24
64835;BME280;51293;59.296;18.006;2022-08-01T00:59:52;100856.13;;;15.09;81.28
64835;BME280;51293;59.296;18.006;2022-08-01T01:02:17;100857.16;;;15.03;82.07
64835;BME280;51293;59.296;18.006;2022-08-01T01:04:43;100854.41;;;15.03;81.71
64835;BME280;51293;59.296;18.006;2022-08-01T01:07:32;100852.50;;;15.04;81.46
64835;BME280;51293;59.296;18.006;2022-08-01T01:10:06;100849.28;;;15.07;81.32
64835;BME280;51293;59.296;18.006;2022-08-01T01:12:34;100853.34;;;15.04;81.29
64835;BME280;51293;59.296;18.006;2022-08-01T01:18:09;100853.88;;;15.01;81.55
64835;BME280;51293;59.296;18.006;2022-08-01T01:20:43;100848.16;;;15.03;81.61
64835;BME280;51293;59.296;18.006;2022-08-01T01:26:17;100843.97;;;14.95;81.76
64835;BME280;51293;59.296;18.006;2022-08-01T01:29:05;100844.84;;;15.01;81.81
64835;BME280;51293;59.296;18.006;2022-08-01T01:34:37;100842.72;;;14.81;82.69
64835;BME280;51293;59.296;18.006;2022-08-01T01:37:07;100837.25;;;14.81;82.47
64835;BME280;51293;59.296;18.006;2022-08-01T01:39:35;100843.81;;;14.80;82.70
64835;BME280;51293;59.296;18.006;2022-08-01T01:42:04;100842.16;;;14.79;82.68
64835;BME280;51293;59.296;18.006;2022-08-01T01:44:30;100839.44;;;14.79;82.68
64835;BME280;51293;59.296;18.006;2022-08-01T01:46:57;100832.34;;;14.78;82.62
64835;BME280;51293;59.296;18.006;2022-08-01T01:49:26;100835.88;;;14.78;82.74
64835;BME280;51293;59.296;18.006;2022-08-01T01:51:54;100828.78;;;14.77;82.78
64835;BME280;51293;59.296;18.006;2022-08-01T01:54:23;100831.78;;;14.76;82.75
64835;BME280;51293;59.296;18.006;2022-08-01T01:56:50;100823.84;;;14.74;83.22
64835;BME280;51293;59.296;18.006;2022-08-01T01:59:19;100820.31;;;14.74;83.51
64835;BME280;51293;59.296;18.006;2022-08-01T02:01:47;100824.59;;;14.70;83.98
64835;BME280;51293;59.296;18.006;2022-08-01T02:04:15;100820.59;;;14.77;83.45
64835;BME280;51293;59.296;18.006;2022-08-01T02:06:42;100822.78;;;14.75;83.74
64835;BME280;51293;59.296;18.006;2022-08-01T02:09:08;100817.59;;;14.74;84.01
64835;BME280;51293;59.296;18.006;2022-08-01T02:11:36;100820.31;;;14.74;83.90
64835;BME280;51293;59.296;18.006;2022-08-01T02:14:04;100815.91;;;14.73;83.97
64835;BME280;51293;59.296;18.006;2022-08-01T02:16:35;100819.22;;;14.75;83.96
64835;BME280;51293;59.296;18.006;2022-08-01T02:19:01;100818.69;;;14.78;83.87
64835;BME280;51293;59.296;18.006;2022-08-01T02:21:35;100813.00;;;14.79;83.58
64835;BME280;51293;59.296;18.006;2022-08-01T02:24:13;100822.50;;;14.77;83.85
64835;BME280;51293;59.296;18.006;2022-08-01T02:26:44;100815.97;;;14.78;83.92
64835;BME280;51293;59.296;18.006;2022-08-01T02:29:16;100807.78;;;14.78;83.44
64835;BME280;51293;59.296;18.006;2022-08-01T02:31:44;100823.34;;;14.77;83.77
64835;BME280;51293;59.296;18.006;2022-08-01T02:34:15;100813.50;;;14.76;83.88
64835;BME280;51293;59.296;18.006;2022-08-01T02:36:43;100817.06;;;14.77;83.83
64835;BME280;51293;59.296;18.006;2022-08-01T02:39:13;100811.03;;;14.75;84.00
64835;BME280;51293;59.296;18.006;2022-08-01T02:41:48;100802.88;;;14.75;83.74
64835;BME280;51293;59.296;18.006;2022-08-01T02:44:23;100806.16;;;14.77;83.72
64835;BME280;51293;59.296;18.006;2022-08-01T02:46:52;100805.59;;;14.75;83.87
64835;BME280;51293;59.296;18.006;2022-08-01T02:49:20;100805.59;;;14.75;83.78
64835;BME280;51293;59.296;18.006;2022-08-01T02:51:47;100803.63;;;14.70;83.78
64835;BME280;51293;59.296;18.006;2022-08-01T02:54:15;100804.97;;;14.68;84.17
64835;BME280;51293;59.296;18.006;2022-08-01T02:56:41;100801.72;;;14.71;83.93
64835;BME280;51293;59.296;18.006;2022-08-01T02:59:12;100807.69;;;14.68;84.60
64835;BME280;51293;59.296;18.006;2022-08-01T03:01:38;100796.53;;;14.69;84.13
64835;BME280;51293;59.296;18.006;2022-08-01T03:04:05;100799.00;;;14.71;84.46
64835;BME280;51293;59.296;18.006;2022-08-01T03:06:32;100800.41;;;14.73;85.02
64835;BME280;51293;59.296;18.006;2022-08-01T03:09:00;100803.34;;;14.72;85.26
64835;BME280;51293;59.296;18.006;2022-08-01T03:11:26;100793.88;;;14.74;85.33
64835;BME280;51293;59.296;18.006;2022-08-01T03:13:54;100797.16;;;14.76;85.23
64835;BME280;51293;59.296;18.006;2022-08-01T03:16:22;100801.25;;;14.79;85.26
64835;BME280;51293;59.296;18.006;2022-08-01T03:18:50;100795.31;;;14.82;85.29
64835;BME280;51293;59.296;18.006;2022-08-01T03:21:19;100795.31;;;14.82;85.44
64835;BME280;51293;59.296;18.006;2022-08-01T03:23:45;100796.13;;;14.82;85.64
64835;BME280;51293;59.296;18.006;2022-08-01T03:26:12;100789.34;;;14.85;85.68
64835;BME280;51293;59.296;18.006;2022-08-01T03:28:38;100792.63;;;14.87;85.98
64835;BME280;51293;59.296;18.006;2022-08-01T03:31:05;100792.34;;;14.88;85.97
64835;BME280;51293;59.296;18.006;2022-08-01T03:33:30;100788.31;;;14.91;85.45
64835;BME280;51293;59.296;18.006;2022-08-01T03:36:00;100795.41;;;14.92;85.87
64835;BME280;51293;59.296;18.006;2022-08-01T03:38:26;100791.59;;;14.93;85.82
64835;BME280;51293;59.296;18.006;2022-08-01T03:40:59;100800.34;;;14.95;85.96
64835;BME280;51293;59.296;18.006;2022-08-01T03:43:46;100789.97;;;14.97;86.07
64835;BME280;51293;59.296;18.006;2022-08-01T03:46:19;100790.25;;;14.96;86.41
64835;BME280;51293;59.296;18.006;2022-08-01T03:48:48;100788.09;;;14.98;86.43
64835;BME280;51293;59.296;18.006;2022-08-01T03:51:15;100788.41;;;15.01;86.25
64835;BME280;51293;59.296;18.006;2022-08-01T03:53:42;100778.31;;;15.02;86.19
64835;BME280;51293;59.296;18.006;2022-08-01T03:56:10;100777.22;;;15.03;86.38
64835;BME280;51293;59.296;18.006;2022-08-01T03:58:39;100787.31;;;15.02;86.67
64835;BME280;51293;59.296;18.006;2022-08-01T04:01:06;100783.00;;;15.06;87.08
64835;BME280;51293;59.296;18.006;2022-08-01T04:03:34;100790.66;;;15.09;87.19
64835;BME280;51293;59.296;18.006;2022-08-01T04:06:04;100780.34;;;15.16;86.98
64835;BME280;51293;59.296;18.006;2022-08-01T04:08:39;100784.72;;;15.17;86.96
64835;BME280;51293;59.296;18.006;2022-08-01T04:11:07;100780.69;;;15.25;87.45
64835;BME280;51293;59.296;18.006;2022-08-01T04:13:33;100774.16;;;15.26;87.41
64835;BME280;51293;59.296;18.006;2022-08-01T04:15:59;100782.69;;;15.35;87.20
64835;BME280;51293;59.296;18.006;2022-08-01T04:18:24;100786.28;;;15.40;87.17
64835;BME280;51293;59.296;18.006;2022-08-01T04:20:50;100783.91;;;15.49;87.03
64835;BME280;51293;59.296;18.006;2022-08-01T04:23:17;100788.81;;;15.52;87.36
64835;BME280;51293;59.296;18.006;2022-08-01T04:25:46;100787.78;;;15.58;87.23
64835;BME280;51293;59.296;18.006;2022-08-01T04:28:13;100781.03;;;15.66;86.77
64835;BME280;51293;59.296;18.006;2022-08-01T04:30:43;100780.22;;;15.70;86.60
64835;BME280;51293;59.296;18.006;2022-08-01T04:33:13;100780.06;;;15.82;86.21
64835;BME280;51293;59.296;18.006;2022-08-01T04:35:43;100775.72;;;15.91;86.23
64835;BME280;51293;59.296;18.006;2022-08-01T04:38:12;100778.22;;;15.98;86.22
64835;BME280;51293;59.296;18.006;2022-08-01T04:40:40;100770.09;;;16.08;85.98
64835;BME280;51293;59.296;18.006;2022-08-01T04:43:06;100768.47;;;16.17;85.68
64835;BME280;51293;59.296;18.006;2022-08-01T04:45:32;100770.97;;;16.24;85.53
64835;BME280;51293;59.296;18.006;2022-08-01T04:47:57;100771.81;;;16.35;84.96
64835;BME280;51293;59.296;18.006;2022-08-01T04:50:26;100766.97;;;16.47;83.87
64835;BME280;51293;59.296;18.006;2022-08-01T04:52:52;100764.53;;;16.55;83.70
64835;BME280;51293;59.296;18.006;2022-08-01T04:55:17;100771.09;;;16.65;82.91
64835;BME280;51293;59.296;18.006;2022-08-01T04:57:44;100762.66;;;16.76;82.13
64835;BME280;51293;59.296;18.006;2022-08-01T05:00:12;100765.97;;;16.83;81.90
64835;BME280;51293;59.296;18.006;2022-08-01T05:02:38;100756.41;;;16.96;80.91
64835;BME280;51293;59.296;18.006;2022-08-01T05:05:03;100752.06;;;17.05;80.55
64835;BME280;51293;59.296;18.006;2022-08-01T05:07:31;100767.38;;;17.17;79.30
64835;BME280;51293;59.296;18.006;2022-08-01T05:09:56;100757.50;;;17.26;77.66
64835;BME280;51293;59.296;18.006;2022-08-01T05:12:22;100756.13;;;17.33;77.95
64835;BME280;51293;59.296;18.006;2022-08-01T05:14:47;100754.47;;;17.37;74.43
64835;BME280;51293;59.296;18.006;2022-08-01T05:17:13;100757.22;;;17.42;74.00
64835;BME280;51293;59.296;18.006;2022-08-01T05:19:39;100761.88;;;17.47;73.59
64835;BME280;51293;59.296;18.006;2022-08-01T05:22:07;100764.59;;;17.57;72.58
64835;BME280;51293;59.296;18.006;2022-08-01T05:24:37;100747.88;;;17.54;72.57
64835;BME280;51293;59.296;18.006;2022-08-01T05:27:04;100757.22;;;17.58;71.79
64835;BME280;51293;59.296;18.006;2022-08-01T05:29:29;100758.56;;;17.60;72.21
64835;BME280;51293;59.296;18.006;2022-08-01T05:31:55;100755.81;;;17.65;71.93
64835;BME280;51293;59.296;18.006;2022-08-01T05:34:21;100749.28;;;17.72;71.62
64835;BME280;51293;59.296;18.006;2022-08-01T05:36:46;100752.81;;;17.67;71.92
64835;BME280;51293;59.296;18.006;2022-08-01T05:39:12;100750.59;;;17.69;71.68
64835;BME280;51293;59.296;18.006;2022-08-01T05:41:38;100744.88;;;17.71;71.66
64835;BME280;51293;59.296;18.006;2022-08-01T05:44:04;100745.97;;;17.80;71.18
64835;BME280;51293;59.296;18.006;2022-08-01T05:46:30;100743.50;;;17.78;71.90
64835;BME280;51293;59.296;18.006;2022-08-01T05:48:59;100742.94;;;17.81;71.78
64835;BME280;51293;59.296;18.006;2022-08-01T05:51:25;100736.66;;;17.81;72.07
64835;BME280;51293;59.296;18.006;2022-08-01T05:53:51;100744.03;;;17.85;72.05
64835;BME280;51293;59.296;18.006;2022-08-01T05:56:16;100735.78;;;17.90;72.40
64835;BME280;51293;59.296;18.006;2022-08-01T05:58:42;100746.72;;;18.01;72.42
64835;BME280;51293;59.296;18.006;2022-08-01T06:01:08;100739.84;;;18.03;72.31
64835;BME280;51293;59.296;18.006;2022-08-01T06:03:34;100739.53;;;18.15;72.36
64835;BME280;51293;59.296;18.006;2022-08-01T06:06:00;100730.44;;;18.24;71.99
64835;BME280;51293;59.296;18.006;2022-08-01T06:08:25;100731.78;;;18.32;72.28
64835;BME280;51293;59.296;18.006;2022-08-01T06:10:51;100732.03;;;18.36;70.62
64835;BME280;51293;59.296;18.006;2022-08-01T06:13:16;100731.13;;;18.50;70.75
64835;BME280;51293;59.296;18.006;2022-08-01T06:15:42;100727.25;;;18.57;70.68
64835;BME280;51293;59.296;18.006;2022-08-01T06:18:07;100727.75;;;18.64;70.02
64835;BME280;51293;59.296;18.006;2022-08-01T06:20:33;100734.84;;;18.75;69.44
64835;BME280;51293;59.296;18.006;2022-08-01T06:22:58;100732.06;;;18.80;68.81
64835;BME280;51293;59.296;18.006;2022-08-01T06:25:24;100725.19;;;18.83;68.01
64835;BME280;51293;59.296;18.006;2022-08-01T06:27:49;100731.75;;;18.87;67.88
64835;BME280;51293;59.296;18.006;2022-08-01T06:30:15;100725.09;;;18.93;65.89
64835;BME280;51293;59.296;18.006;2022-08-01T06:32:40;100722.41;;;18.88;63.49
64835;BME280;51293;59.296;18.006;2022-08-01T06:35:06;100730.34;;;18.89;63.84
64835;BME280;51293;59.296;18.006;2022-08-01T06:37:32;100717.88;;;19.02;64.05
64835;BME280;51293;59.296;18.006;2022-08-01T06:40:05;100724.41;;;19.11;64.00
64835;BME280;51293;59.296;18.006;2022-08-01T06:42:31;100715.53;;;19.19;63.61
64835;BME280;51293;59.296;18.006;2022-08-01T06:45:03;100716.81;;;19.32;63.83
64835;BME280;51293;59.296;18.006;2022-08-01T06:47:29;100718.63;;;19.42;63.42
64835;BME280;51293;59.296;18.006;2022-08-01T06:49:54;100720.47;;;19.51;62.48
64835;BME280;51293;59.296;18.006;2022-08-01T06:52:20;100719.22;;;19.68;62.27
64835;BME280;51293;59.296;18.006;2022-08-01T06:54:45;100715.00;;;19.75;62.80
64835;BME280;51293;59.296;18.006;2022-08-01T06:57:11;100713.22;;;19.66;61.43
64835;BME280;51293;59.296;18.006;2022-08-01T06:59:36;100711.63;;;19.59;61.42
64835;BME280;51293;59.296;18.006;2022-08-01T07:02:02;100722.09;;;19.52;61.50
64835;BME280;51293;59.296;18.006;2022-08-01T07:04:27;100729.22;;;19.58;60.99
64835;BME280;51293;59.296;18.006;2022-08-01T07:06:52;100728.91;;;19.60;60.17
64835;BME280;51293;59.296;18.006;2022-08-01T07:09:18;100721.63;;;19.74;59.65
64835;BME280;51293;59.296;18.006;2022-08-01T07:11:43;100720.16;;;19.82;57.99
64835;BME280;51293;59.296;18.006;2022-08-01T07:14:08;100722.31;;;19.85;56.20
64835;BME280;51293;59.296;18.006;2022-08-01T07:16:34;100724.00;;;19.86;55.99
64835;BME280;51293;59.296;18.006;2022-08-01T07:19:00;100719.22;;;19.91;54.64
64835;BME280;51293;59.296;18.006;2022-08-01T07:21:25;100728.28;;;19.92;55.11
64835;BME280;51293;59.296;18.006;2022-08-01T07:23:50;100726.13;;;19.89;55.15
64835;BME280;51293;59.296;18.006;2022-08-01T07:26:16;100720.03;;;19.92;55.85
64835;BME280;51293;59.296;18.006;2022-08-01T07:28:42;100723.25;;;19.99;55.17
64835;BME280;51293;59.296;18.006;2022-08-01T07:31:08;100721.28;;;20.05;55.03
64835;BME280;51293;59.296;18.006;2022-08-01T07:33:33;100718.91;;;20.17;54.90
64835;BME280;51293;59.296;18.006;2022-08-01T07:35:58;100722.22;;;20.19;54.69
64835;BME280;51293;59.296;18.006;2022-08-01T07:38:24;100715.28;;;20.22;55.03
64835;BME280;51293;59.296;18.006;2022-08-01T07:40:49;100713.50;;;20.31;55.73
64835;BME280;51293;59.296;18.006;2022-08-01T07:43:14;100709.44;;;20.28;54.88
64835;BME280;51293;59.296;18.006;2022-08-01T07:45:41;100715.91;;;20.37;55.31
64835;BME280;51293;59.296;18.006;2022-08-01T07:48:07;100710.50;;;20.51;55.08
64835;BME280;51293;59.296;18.006;2022-08-01T07:50:33;100712.00;;;20.62;54.82
64835;BME280;51293;59.296;18.006;2022-08-01T07:52:59;100711.31;;;20.70;54.38
64835;BME280;51293;59.296;18.006;2022-08-01T07:55:25;100703.50;;;20.78;53.67
64835;BME280;51293;59.296;18.006;2022-08-01T07:57:51;100700.22;;;20.75;53.46
64835;BME280;51293;59.296;18.006;2022-08-01T08:00:17;100702.47;;;20.73;53.26
64835;BME280;51293;59.296;18.006;2022-08-01T08:02:42;100706.09;;;20.88;53.29
64835;BME280;51293;59.296;18.006;2022-08-01T08:05:08;100696.03;;;20.97;53.21
64835;BME280;51293;59.296;18.006;2022-08-01T08:07:33;100693.72;;;21.18;52.56
64835;BME280;51293;59.296;18.006;2022-08-01T08:10:00;100686.50;;;21.22;52.55
64835;BME280;51293;59.296;18.006;2022-08-01T08:12:26;100687.13;;;21.19;51.85
64835;BME280;51293;59.296;18.006;2022-08-01T08:14:51;100682.84;;;21.26;51.91
64835;BME280;51293;59.296;18.006;2022-08-01T08:17:16;100693.91;;;21.40;49.56
64835;BME280;51293;59.296;18.006;2022-08-01T08:19:42;100698.53;;;21.26;46.75
64835;BME280;51293;59.296;18.006;2022-08-01T08:22:08;100695.66;;;21.03;46.46
64835;BME280;51293;59.296;18.006;2022-08-01T08:24:34;100693.34;;;21.24;47.10
64835;BME280;51293;59.296;18.006;2022-08-01T08:27:01;100692.78;;;21.41;46.75
64835;BME280;51293;59.296;18.006;2022-08-01T08:29:29;100697.75;;;21.85;46.50
64835;BME280;51293;59.296;18.006;2022-08-01T08:31:56;100691.50;;;21.80;46.54
64835;BME280;51293;59.296;18.006;2022-08-01T08:34:22;100694.44;;;21.97;46.31
64835;BME280;51293;59.296;18.006;2022-08-01T08:36:49;100688.03;;;22.02;45.66
64835;BME280;51293;59.296;18.006;2022-08-01T08:39:14;100686.19;;;22.11;44.90
64835;BME280;51293;59.296;18.006;2022-08-01T08:41:41;100686.38;;;22.28;45.10
64835;BME280;51293;59.296;18.006;2022-08-01T08:44:07;100689.84;;;21.93;46.04
64835;BME280;51293;59.296;18.006;2022-08-01T08:46:33;100687.22;;;21.60;47.11
64835;BME280;51293;59.296;18.006;2022-08-01T08:49:06;100684.84;;;21.67;46.84
64835;BME280;51293;59.296;18.006;2022-08-01T08:51:33;100682.88;;;22.36;45.40
64835;BME280;51293;59.296;18.006;2022-08-01T08:54:00;100680.34;;;23.07;43.08
64835;BME280;51293;59.296;18.006;2022-08-01T08:56:26;100672.13;;;23.47;42.67
64835;BME280;51293;59.296;18.006;2022-08-01T08:58:55;100675.09;;;23.99;41.94
64835;BME280;51293;59.296;18.006;2022-08-01T09:01:21;100670.44;;;24.25;40.14
64835;BME280;51293;59.296;18.006;2022-08-01T09:03:47;100672.59;;;24.37;40.07
64835;BME280;51293;59.296;18.006;2022-08-01T09:06:12;100669.81;;;24.54;39.38
64835;BME280;51293;59.296;18.006;2022-08-01T09:08:38;100669.00;;;24.71;39.01
64835;BME280;51293;59.296;18.006;2022-08-01T09:11:03;100677.31;;;24.80;38.09
64835;BME280;51293;59.296;18.006;2022-08-01T09:13:29;100670.78;;;25.10;37.78
64835;BME280;51293;59.296;18.006;2022-08-01T09:15:55;100660.28;;;25.71;37.51
64835;BME280;51293;59.296;18.006;2022-08-01T09:18:44;100664.28;;;25.53;36.74
64835;BME280;51293;59.296;18.006;2022-08-01T09:21:12;100659.81;;;25.23;36.98
64835;BME280;51293;59.296;18.006;2022-08-01T09:23:43;100662.41;;;25.28;38.02
64835;BME280;51293;59.296;18.006;2022-08-01T09:26:10;100660.34;;;25.07;38.15
64835;BME280;51293;59.296;18.006;2022-08-01T09:28:36;100657.28;;;24.83;38.19
64835;BME280;51293;59.296;18.006;2022-08-01T09:31:10;100661.50;;;24.37;38.69
64835;BME280;51293;59.296;18.006;2022-08-01T09:36:16;100659.00;;;23.92;40.10
64835;BME280;51293;59.296;18.006;2022-08-01T09:38:42;100660.00;;;24.14;40.78
64835;BME280;51293;59.296;18.006;2022-08-01T09:41:08;100655.69;;;23.81;40.55
64835;BME280;51293;59.296;18.006;2022-08-01T09:43:34;100653.47;;;24.01;40.96
64835;BME280;51293;59.296;18.006;2022-08-01T09:46:04;100659.97;;;24.05;39.94
64835;BME280;51293;59.296;18.006;2022-08-01T09:48:31;100657.56;;;24.12;39.73
64835;BME280;51293;59.296;18.006;2022-08-01T09:50:58;100651.34;;;24.06;39.47
64835;BME280;51293;59.296;18.006;2022-08-01T09:53:24;100653.28;;;23.97;38.97
64835;BME280;51293;59.296;18.006;2022-08-01T09:55:50;100655.63;;;24.30;39.72
64835;BME280;51293;59.296;18.006;2022-08-01T09:58:17;100640.50;;;24.71;38.31
64835;BME280;51293;59.296;18.006;2022-08-01T10:00:44;100637.25;;;24.69;37.95
64835;BME280;51293;59.296;18.006;2022-08-01T10:03:24;100633.84;;;24.37;38.54
64835;BME280;51293;59.296;18.006;2022-08-01T10:05:49;100640.50;;;24.45;38.42
64835;BME280;51293;59.296;18.006;2022-08-01T10:08:16;100640.16;;;24.63;38.83
64835;BME280;51293;59.296;18.006;2022-08-01T10:11:09;100632.63;;;24.99;38.81
64835;BME280;51293;59.296;18.006;2022-08-01T10:13:35;100630.94;;;25.62;37.95
64835;BME280;51293;59.296;18.006;2022-08-01T10:16:01;100626.81;;;25.76;37.02
64835;BME280;51293;59.296;18.006;2022-08-01T10:18:28;100611.00;;;25.68;37.29
64835;BME280;51293;59.296;18.006;2022-08-01T10:20:56;100617.53;;;25.34;37.51
64835;BME280;51293;59.296;18.006;2022-08-01T10:23:24;100611.41;;;25.58;37.40
64835;BME280;51293;59.296;18.006;2022-08-01T10:25:50;100609.44;;;25.20;37.79
64835;BME280;51293;59.296;18.006;2022-08-01T10:28:19;100620.06;;;25.18;37.53
64835;BME280;51293;59.296;18.006;2022-08-01T10:30:45;100616.28;;;25.23;37.91
64835;BME280;51293;59.296;18.006;2022-08-01T10:33:12;100615.81;;;25.12;37.42
64835;BME280;51293;59.296;18.006;2022-08-01T10:35:39;100620.66;;;24.51;38.17
64835;BME280;51293;59.296;18.006;2022-08-01T10:38:04;100622.75;;;24.46;38.04
64835;BME280;51293;59.296;18.006;2022-08-01T10:40:30;100625.03;;;24.61;38.74
64835;BME280;51293;59.296;18.006;2022-08-01T10:42:56;100614.59;;;24.49;37.90
64835;BME280;51293;59.296;18.006;2022-08-01T10:45:22;100607.41;;;24.65;38.31
64835;BME280;51293;59.296;18.006;2022-08-01T10:47:53;100619.31;;;24.49;38.39
64835;BME280;51293;59.296;18.006;2022-08-01T10:50:29;100608.06;;;23.85;38.96
64835;BME280;51293;59.296;18.006;2022-08-01T10:55:46;100613.09;;;23.43;39.29
64835;BME280;51293;59.296;18.006;2022-08-01T10:58:12;100614.56;;;23.49;39.84
64835;BME280;51293;59.296;18.006;2022-08-01T11:00:37;100612.88;;;23.62;39.96
64835;BME280;51293;59.296;18.006;2022-08-01T11:03:03;100599.41;;;23.38;39.78
64835;BME280;51293;59.296;18.006;2022-08-01T11:05:32;100604.50;;;23.13;39.94
64835;BME280;51293;59.296;18.006;2022-08-01T11:08:01;100605.88;;;22.93;39.77
64835;BME280;51293;59.296;18.006;2022-08-01T11:10:39;100615.41;;;22.65;40.08
64835;BME280;51293;59.296;18.006;2022-08-01T11:13:06;100611.28;;;22.54;40.65
64835;BME280;51293;59.296;18.006;2022-08-01T11:15:39;100609.63;;;22.30;40.86
64835;BME280;51293;59.296;18.006;2022-08-01T11:20:57;100612.72;;;22.15;42.23
64835;BME280;51293;59.296;18.006;2022-08-01T11:23:24;100611.22;;;22.09;42.62
64835;BME280;51293;59.296;18.006;2022-08-01T11:28:19;100607.34;;;22.10;43.01
64835;BME280;51293;59.296;18.006;2022-08-01T11:33:58;100605.47;;;22.41;42.57
64835;BME280;51293;59.296;18.006;2022-08-01T11:36:25;100608.50;;;22.54;42.84
64835;BME280;51293;59.296;18.006;2022-08-01T11:44:05;100619.06;;;22.52;42.71
64835;BME280;51293;59.296;18.006;2022-08-01T11:52:06;100612.63;;;22.20;43.14
64835;BME280;51293;59.296;18.006;2022-08-01T11:54:35;100615.88;;;22.22;43.27
64835;BME280;51293;59.296;18.006;2022-08-01T11:57:13;100620.50;;;22.13;43.26
64835;BME280;51293;59.296;18.006;2022-08-01T11:59:50;100618.69;;;21.81;43.48
64835;BME280;51293;59.296;18.006;2022-08-01T12:04:49;100618.50;;;21.77;43.73
64835;BME280;51293;59.296;18.006;2022-08-01T12:07:16;100613.28;;;21.76;43.47
64835;BME280;51293;59.296;18.006;2022-08-01T12:09:41;100624.63;;;21.88;43.21
64835;BME280;51293;59.296;18.006;2022-08-01T12:12:07;100618.88;;;21.98;43.37
64835;BME280;51293;59.296;18.006;2022-08-01T12:14:33;100613.88;;;22.14;43.10
64835;BME280;51293;59.296;18.006;2022-08-01T12:16:59;100615.09;;;22.44;42.44
64835;BME280;51293;59.296;18.006;2022-08-01T12:19:24;100626.94;;;22.67;42.57
64835;BME280;51293;59.296;18.006;2022-08-01T12:22:11;100619.72;;;22.57;43.08
64835;BME280;51293;59.296;18.006;2022-08-01T12:24:38;100609.75;;;22.70;42.20
64835;BME280;51293;59.296;18.006;2022-08-01T12:27:04;100614.25;;;23.42;41.02
64835;BME280;51293;59.296;18.006;2022-08-01T12:29:40;100606.28;;;24.06;40.46
64835;BME280;51293;59.296;18.006;2022-08-01T12:32:26;100600.41;;;24.85;38.71
64835;BME280;51293;59.296;18.006;2022-08-01T12:34:53;100602.34;;;24.85;38.32
64835;BME280;51293;59.296;18.006;2022-08-01T12:37:19;100609.22;;;24.70;38.48
64835;BME280;51293;59.296;18.006;2022-08-01T12:39:45;100598.97;;;24.53;38.82
64835;BME280;51293;59.296;18.006;2022-08-01T12:42:12;100596.81;;;23.98;39.49
64835;BME280;51293;59.296;18.006;2022-08-01T12:44:38;100603.34;;;24.02;39.86
64835;BME280;51293;59.296;18.006;2022-08-01T12:47:08;100594.06;;;24.24;40.34
64835;BME280;51293;59.296;18.006;2022-08-01T12:49:37;100601.59;;;24.58;39.75
64835;BME280;51293;59.296;18.006;2022-08-01T12:52:04;100598.19;;;24.44;39.13
64835;BME280;51293;59.296;18.006;2022-08-01T12:54:30;100598.97;;;24.27;39.86
64835;BME280;51293;59.296;18.006;2022-08-01T12:56:56;100586.09;;;24.05;39.96
64835;BME280;51293;59.296;18.006;2022-08-01T12:59:27;100590.00;;;24.65;40.86
64835;BME280;51293;59.296;18.006;2022-08-01T13:01:53;100578.13;;;25.58;38.10
64835;BME280;51293;59.296;18.006;2022-08-01T13:04:19;100573.47;;;26.75;37.12
64835;BME280;51293;59.296;18.006;2022-08-01T13:06:44;100568.13;;;27.28;35.35
64835;BME280;51293;59.296;18.006;2022-08-01T13:09:11;100568.13;;;27.52;31.13
64835;BME280;51293;59.296;18.006;2022-08-01T13:11:39;100583.34;;;26.97;30.61
64835;BME280;51293;59.296;18.006;2022-08-01T13:14:04;100569.41;;;27.42;30.98
64835;BME280;51293;59.296;18.006;2022-08-01T13:16:29;100572.28;;;27.46;30.58
64835;BME280;51293;59.296;18.006;2022-08-01T13:18:56;100575.59;;;27.03;30.59